Time;durP1;ratioP1;P1;durP2;ratioP2;P2;SDS_P1;SDS_P2;PMS_P1;PMS_P2;Temp;Humidity;BMP_temperature;BMP_pressure;BME280_temperature;BME280_humidity;BME280_pressure;Samples;Min_cycle;Max_cycle;Signal;HPM_P1;HPM_P2
2020/12/13 00:02:54;;;;;;;;;28.00;23.40;;;;;9.19;50.45;97988.47;6175866;28;97466;-60
2020/12/13 00:05:56;;;;;;;;;31.60;25.40;;;;;9.13;50.38;97992.94;6186285;28;97496;-60
2020/12/13 00:09:04;;;;;;;;;28.60;25.60;;;;;9.16;50.26;97994.34;6185804;28;97122;-60
2020/12/13 00:12:06;;;;;;;;;33.00;27.80;;;;;9.20;50.18;98000.88;6186202;28;97155;-60
2020/12/13 00:15:07;;;;;;;;;27.80;25.80;;;;;9.24;50.28;98001.22;6186249;28;98400;-60
2020/12/13 00:18:09;;;;;;;;;29.80;24.60;;;;;9.26;50.20;98008.00;6200079;28;97642;-60
2020/12/13 00:21:12;;;;;;;;;29.60;25.00;;;;;9.31;49.98;98016.19;6186183;28;98518;-60
2020/12/13 00:24:13;;;;;;;;;34.00;26.60;;;;;9.32;50.05;98015.16;6185628;28;97127;-60
2020/12/13 00:27:15;;;;;;;;;33.40;28.00;;;;;9.33;50.10;98021.34;6185915;28;97205;-60
2020/12/13 00:30:16;;;;;;;;;36.20;29.60;;;;;9.35;49.89;98024.59;6185346;28;98047;-60
2020/12/13 00:33:18;;;;;;;;;30.80;26.80;;;;;9.38;49.88;98027.63;6187346;28;98535;-60
2020/12/13 00:36:19;;;;;;;;;35.00;30.00;;;;;9.42;49.84;98020.75;6170885;28;98582;-60
2020/12/13 00:39:20;;;;;;;;;32.40;29.00;;;;;9.46;49.94;98031.84;6187463;28;97191;-60
2020/12/13 00:42:22;;;;;;;;;34.50;29.50;;;;;9.46;49.71;98030.00;6178066;28;96686;-60
2020/12/13 00:45:24;;;;;;;;;31.80;27.80;;;;;9.48;49.77;98045.91;6186966;28;96639;-60
2020/12/13 00:48:26;;;;;;;;;33.00;28.50;;;;;9.48;49.67;98044.00;6185343;28;96498;-60
2020/12/13 00:51:28;;;;;;;;;34.50;28.50;;;;;9.49;49.76;98048.34;6185776;28;97691;-60
2020/12/13 00:54:31;;;;;;;;;33.60;30.40;;;;;9.44;49.78;98050.91;6185613;28;97094;-60
2020/12/13 00:57:33;;;;;;;;;33.00;30.00;;;;;9.45;49.72;98049.88;6171036;28;96636;-60
2020/12/13 01:00:34;;;;;;;;;36.00;30.00;;;;;9.47;49.46;98049.66;6184339;28;96406;-61
2020/12/13 01:03:35;;;;;;;;;28.00;24.60;;;;;9.47;49.69;98050.47;6169390;28;96656;-60
2020/12/13 01:06:37;;;;;;;;;36.80;30.00;;;;;9.47;49.72;98058.53;6179615;28;98586;-60
2020/12/13 01:09:38;;;;;;;;;36.20;32.00;;;;;9.47;49.61;98055.84;6183216;28;97214;-60
2020/12/13 01:12:43;;;;;;;;;35.00;29.00;;;;;9.43;49.67;98054.66;6184362;28;97118;-60
2020/12/13 01:15:44;;;;;;;;;39.60;31.00;;;;;9.34;49.77;98053.38;6185075;28;96633;-60
2020/12/13 01:18:46;;;;;;;;;43.60;33.00;;;;;9.36;49.82;98058.53;6184395;28;96606;-60
2020/12/13 01:21:47;;;;;;;;;41.60;32.00;;;;;9.40;49.78;98057.00;6184686;28;97098;-60
2020/12/13 01:24:49;;;;;;;;;37.60;32.00;;;;;9.42;49.81;98055.72;6184643;28;97550;-60
2020/12/13 01:27:50;;;;;;;;;35.20;28.60;;;;;9.41;49.69;98053.25;6182147;28;97029;-61
2020/12/13 01:30:52;;;;;;;;;42.00;32.60;;;;;9.42;49.71;98053.03;6181407;28;97540;-60
2020/12/13 01:33:53;;;;;;;;;34.80;30.00;;;;;9.43;49.65;98051.16;6181893;28;96873;-60
2020/12/13 01:36:55;;;;;;;;;34.40;30.40;;;;;9.42;49.68;98055.72;6182083;28;97857;-60
2020/12/13 01:39:56;;;;;;;;;34.60;29.00;;;;;9.42;49.78;98060.28;6183615;28;97201;-60
2020/12/13 01:42:58;;;;;;;;;39.00;30.00;;;;;9.45;49.66;98054.44;6183455;28;97420;-60
2020/12/13 01:45:59;;;;;;;;;36.60;32.00;;;;;9.46;49.67;98058.75;6184460;28;98120;-60
2020/12/13 01:49:05;;;;;;;;;36.50;30.75;;;;;9.33;49.57;98045.56;6182260;28;96981;-60
2020/12/13 01:55:29;;;;;;;;;43.80;34.60;;;;;9.38;49.26;98037.59;6181980;28;96913;-60
2020/12/13 01:58:38;;;;;;;;;45.75;34.00;;;;;9.40;49.36;98057.00;6180579;28;97464;-60
2020/12/13 02:01:41;;;;;;;;;45.50;35.00;;;;;9.34;49.46;98058.75;6182284;28;97560;-60
2020/12/13 02:04:45;;;;;;;;;40.60;35.00;;;;;9.32;49.24;98062.75;6182528;28;98292;-60
2020/12/13 02:07:49;;;;;;;;;45.00;34.60;;;;;9.20;49.44;98049.28;6181546;28;97201;-60
2020/12/13 02:10:51;;;;;;;;;46.80;37.40;;;;;9.23;49.33;98048.81;6182751;28;98821;-60
2020/12/13 02:13:52;;;;;;;;;49.00;39.00;;;;;9.29;49.22;98065.88;6183950;28;97034;-60
2020/12/13 02:16:54;;;;;;;;;42.00;34.00;;;;;9.30;49.50;98065.66;6199056;28;97136;-60
2020/12/13 02:19:56;;;;;;;;;48.50;37.75;;;;;9.22;49.26;98060.63;6183863;28;97009;-60
2020/12/13 02:22:58;;;;;;;;;50.20;38.00;;;;;9.08;49.40;98043.09;6183950;28;97419;-60
2020/12/13 02:26:00;;;;;;;;;50.00;38.00;;;;;9.15;49.30;98057.22;6183190;28;97315;-60
2020/12/13 02:29:01;;;;;;;;;45.00;36.00;;;;;9.09;49.38;98061.66;6183510;28;96535;-60
2020/12/13 02:32:03;;;;;;;;;44.40;35.00;;;;;9.03;49.51;98067.97;6183272;28;97049;-60
2020/12/13 02:35:06;;;;;;;;;44.80;35.40;;;;;9.08;49.64;98078.88;6183541;28;97625;-60
2020/12/13 02:38:08;;;;;;;;;49.40;40.00;;;;;9.00;49.57;98057.69;6178695;28;98538;-60
2020/12/13 02:41:11;;;;;;;;;50.00;38.60;;;;;9.02;49.79;98066.34;6183940;28;97657;-60
2020/12/13 02:44:12;;;;;;;;;45.60;37.60;;;;;8.81;49.97;98031.09;6186649;28;97016;-60
2020/12/13 02:47:13;;;;;;;;;45.20;35.20;;;;;9.11;49.52;98073.00;6187118;28;97059;-60
2020/12/13 02:50:15;;;;;;;;;47.75;35.00;;;;;9.13;49.74;98070.91;6187775;28;98417;-60
2020/12/13 02:53:16;;;;;;;;;46.40;36.00;;;;;9.13;49.52;98072.78;6187076;28;97112;-60
2020/12/13 02:56:18;;;;;;;;;46.40;35.00;;;;;9.14;49.54;98077.09;6187530;28;98697;-60
2020/12/13 02:59:19;;;;;;;;;47.60;38.00;;;;;9.12;49.70;98071.16;6187353;28;97350;-59
2020/12/13 03:02:20;;;;;;;;;47.00;35.60;;;;;9.16;49.81;98072.31;6187353;28;98500;-60
2020/12/13 03:05:22;;;;;;;;;41.20;32.00;;;;;9.14;49.71;98077.91;6187650;28;97158;-60
2020/12/13 03:08:24;;;;;;;;;39.00;33.00;;;;;9.17;49.71;98075.81;6186447;28;97089;-60
2020/12/13 03:11:26;;;;;;;;;43.80;36.00;;;;;9.21;49.46;98080.50;6186628;28;96673;-60
2020/12/13 03:14:28;;;;;;;;;45.00;36.00;;;;;9.24;49.49;98088.09;6187239;28;97048;-60
2020/12/13 03:17:29;;;;;;;;;42.40;34.40;;;;;9.21;49.53;98088.56;6186786;28;96902;-60
2020/12/13 03:20:30;;;;;;;;;43.60;34.00;;;;;9.20;49.37;98099.56;6186956;28;98105;-60
2020/12/13 03:23:32;;;;;;;;;44.40;34.00;;;;;9.20;49.44;98092.31;6186630;28;96882;-60
2020/12/13 03:26:33;;;;;;;;;40.00;32.00;;;;;9.15;49.53;98089.50;6186821;28;97660;-60
2020/12/13 03:29:34;;;;;;;;;40.60;33.00;;;;;9.20;49.56;98097.69;6186802;28;96478;-60
2020/12/13 03:32:36;;;;;;;;;34.00;30.00;;;;;9.21;49.50;98110.09;6186423;28;96601;-60
2020/12/13 03:35:37;;;;;;;;;35.80;30.40;;;;;9.21;49.40;98106.56;6184923;28;96912;-59
2020/12/13 03:38:39;;;;;;;;;34.00;29.20;;;;;9.20;49.41;98115.69;6186063;28;99169;-60
2020/12/13 03:41:40;;;;;;;;;34.60;28.00;;;;;9.24;49.36;98112.28;6185427;28;97992;-60
2020/12/13 03:44:42;;;;;;;;;33.40;29.00;;;;;9.26;49.44;98120.16;6184897;28;97142;-60
2020/12/13 03:47:43;;;;;;;;;34.20;30.00;;;;;9.27;49.50;98119.91;6186970;28;98537;-60
2020/12/13 03:50:44;;;;;;;;;32.00;27.60;;;;;9.21;49.32;98126.22;6186283;28;97490;-60
2020/12/13 03:53:46;;;;;;;;;40.20;32.60;;;;;9.22;49.71;98133.25;6184655;28;98080;-60
2020/12/13 03:56:47;;;;;;;;;34.20;28.20;;;;;9.21;49.58;98128.91;6185372;28;97502;-60
2020/12/13 03:59:48;;;;;;;;;34.00;30.00;;;;;9.22;49.63;98127.03;6184793;28;97284;-59
2020/12/13 04:02:50;;;;;;;;;29.00;26.00;;;;;9.23;49.53;98126.81;6185011;28;97172;-60
2020/12/13 04:05:51;;;;;;;;;28.20;26.80;;;;;9.22;49.44;98127.03;6184858;28;97127;-60
2020/12/13 04:08:53;;;;;;;;;32.60;26.60;;;;;9.15;49.49;98132.50;6184498;28;96666;-60
2020/12/13 04:11:54;;;;;;;;;32.75;26.50;;;;;8.62;49.74;98046.50;6183958;28;97121;-60
2020/12/13 04:14:55;;;;;;;;;30.40;26.20;;;;;9.19;49.76;98127.50;6186681;28;97149;-60
2020/12/13 04:17:57;;;;;;;;;28.00;26.00;;;;;9.22;49.52;98132.41;6186603;28;97164;-60
2020/12/13 04:20:58;;;;;;;;;32.40;28.40;;;;;9.22;49.53;98135.13;6186307;28;96966;-60
2020/12/13 04:24:00;;;;;;;;;26.60;24.60;;;;;9.23;49.50;98142.13;6185949;28;96800;-60
2020/12/13 04:27:02;;;;;;;;;25.00;23.00;;;;;9.26;49.51;98137.09;6186229;28;97034;-60
2020/12/13 04:30:05;;;;;;;;;28.50;25.00;;;;;9.11;49.49;98121.41;6186519;28;97667;-60
2020/12/13 04:33:10;;;;;;;;;26.00;22.00;;;;;9.27;49.40;98140.63;6186681;28;97261;-60
2020/12/13 04:36:11;;;;;;;;;23.25;22.25;;;;;9.29;49.60;98152.75;6185560;28;96697;-59
2020/12/13 04:39:13;;;;;;;;;24.40;20.40;;;;;9.30;49.35;98150.91;6185845;28;97074;-60
2020/12/13 04:42:14;;;;;;;;;25.40;21.40;;;;;9.32;49.21;98146.13;6186044;28;98656;-60
2020/12/13 04:45:16;;;;;;;;;22.20;19.20;;;;;9.24;49.14;98138.38;6186111;28;97365;-60
2020/12/13 04:48:19;;;;;;;;;22.80;21.20;;;;;9.12;49.28;98133.00;6185741;28;97165;-60
2020/12/13 04:51:26;;;;;;;;;25.00;22.00;;;;;9.20;49.32;98140.72;6185603;28;97032;-60
2020/12/13 04:54:29;;;;;;;;;24.00;19.00;;;;;9.23;49.28;98142.13;6185418;28;96594;-60
2020/12/13 04:57:30;;;;;;;;;22.00;19.60;;;;;9.24;49.37;98149.94;6161215;28;97660;-60
2020/12/13 05:00:32;;;;;;;;;21.40;19.00;;;;;9.24;49.30;98151.81;6180409;28;96842;-60
2020/12/13 05:03:35;;;;;;;;;25.00;21.80;;;;;9.18;49.18;98142.00;6184201;28;98402;-60
2020/12/13 05:06:37;;;;;;;;;32.00;26.80;;;;;9.20;49.28;98162.22;6182129;28;97484;-60
2020/12/13 05:09:40;;;;;;;;;28.60;26.60;;;;;9.15;49.08;98156.72;6184867;28;97446;-60
2020/12/13 05:12:41;;;;;;;;;33.40;28.00;;;;;8.98;49.16;98134.25;6184879;28;97062;-60
2020/12/13 05:15:43;;;;;;;;;27.80;26.00;;;;;9.14;49.28;98171.19;6183459;28;97067;-60
2020/12/13 05:18:44;;;;;;;;;29.00;24.00;;;;;9.08;49.34;98166.78;6185283;28;97554;-60
2020/12/13 05:21:46;;;;;;;;;31.25;26.50;;;;;8.99;49.11;98177.00;6185371;28;96676;-60
2020/12/13 05:24:50;;;;;;;;;31.00;28.00;;;;;8.96;49.35;98166.72;6184443;28;97467;-60
2020/12/13 05:27:53;;;;;;;;;29.00;27.40;;;;;8.98;49.45;98177.25;6183957;28;97161;-60
2020/12/13 05:30:55;;;;;;;;;30.80;26.80;;;;;8.98;49.51;98180.75;6182930;28;96984;-60
2020/12/13 05:34:06;;;;;;;;;30.60;26.60;;;;;9.01;49.39;98193.75;6183999;28;97162;-60
2020/12/13 05:37:14;;;;;;;;;33.00;28.67;;;;;9.07;49.24;98181.25;6182125;28;97207;-60
2020/12/13 05:40:15;;;;;;;;;29.00;27.00;;;;;9.08;49.25;98185.59;6183948;28;97064;-60
2020/12/13 05:43:21;;;;;;;;;34.75;28.00;;;;;9.08;49.16;98185.59;6184483;28;97519;-60
2020/12/13 05:49:54;;;;;;;;;31.00;27.00;;;;;9.14;49.15;98190.03;6184713;28;96849;-60
2020/12/13 05:52:55;;;;;;;;;27.50;25.75;;;;;9.16;49.11;98203.25;6195309;28;96802;-60
2020/12/13 05:55:57;;;;;;;;;30.00;27.00;;;;;9.16;49.02;98197.88;6183270;28;98598;-60
2020/12/13 05:58:59;;;;;;;;;28.00;24.00;;;;;9.21;49.08;98203.38;6183001;28;97547;-60
2020/12/13 06:02:02;;;;;;;;;28.00;25.60;;;;;9.21;48.97;98198.00;6184442;28;98485;-60
2020/12/13 06:05:06;;;;;;;;;32.00;28.00;;;;;8.96;48.86;98161.34;6184816;28;98012;-60
2020/12/13 06:08:13;;;;;;;;;27.00;24.60;;;;;9.13;49.09;98191.94;6183393;28;97658;-59
2020/12/13 06:11:16;;;;;;;;;27.00;24.50;;;;;9.23;48.86;98207.50;6183051;28;96549;-60
2020/12/13 06:14:19;;;;;;;;;25.60;21.60;;;;;9.19;48.73;98208.19;6184287;28;96600;-60
2020/12/13 06:17:21;;;;;;;;;29.50;25.00;;;;;9.19;48.89;98206.28;6188176;28;96468;-60
2020/12/13 06:20:22;;;;;;;;;29.00;25.00;;;;;9.08;48.90;98180.22;6188427;28;97059;-60
2020/12/13 06:23:25;;;;;;;;;30.75;28.00;;;;;9.24;48.88;98211.81;6189127;28;98542;-60
2020/12/13 06:26:29;;;;;;;;;33.50;28.00;;;;;9.24;48.97;98217.19;6188917;28;97224;-60
2020/12/13 06:29:31;;;;;;;;;29.40;25.20;;;;;9.29;48.89;98224.56;6188821;28;98540;-60
2020/12/13 06:32:43;;;;;;;;;35.00;30.00;;;;;9.26;48.93;98223.16;6188718;28;97493;-60
2020/12/13 06:35:45;;;;;;;;;32.00;26.00;;;;;9.25;48.84;98229.59;6188617;28;97111;-60
2020/12/13 06:38:54;;;;;;;;;33.00;29.40;;;;;9.25;48.87;98229.59;6186316;28;96791;-60
2020/12/13 06:42:02;;;;;;;;;32.80;27.00;;;;;9.21;48.99;98228.41;6185022;28;97259;-60
2020/12/13 06:45:09;;;;;;;;;28.40;26.20;;;;;9.20;48.90;98229.47;6186752;28;98403;-60
2020/12/13 06:48:11;;;;;;;;;27.75;24.25;;;;;9.23;49.10;98239.78;6187596;28;97456;-60
2020/12/13 06:51:18;;;;;;;;;28.60;25.60;;;;;9.25;48.89;98239.53;6186136;28;96889;-60
2020/12/13 06:54:21;;;;;;;;;29.00;25.00;;;;;9.26;48.88;98239.31;6187260;28;98555;-60
2020/12/13 06:57:23;;;;;;;;;28.60;24.60;;;;;9.27;49.00;98246.34;6185951;28;97091;-60
2020/12/13 07:00:25;;;;;;;;;31.00;27.60;;;;;9.23;48.63;98250.53;6186270;28;97015;-60
2020/12/13 07:03:26;;;;;;;;;26.00;23.60;;;;;9.23;48.84;98245.16;6186908;28;97417;-60
2020/12/13 07:06:45;;;;;;;;;29.00;28.00;;;;;9.14;48.86;98238.44;6186280;28;96961;-60
2020/12/13 07:09:47;;;;;;;;;28.80;26.80;;;;;9.22;49.11;98248.06;6185976;28;96790;-60
2020/12/13 07:12:56;;;;;;;;;25.00;22.60;;;;;9.21;49.07;98263.38;6185152;28;96920;-60
2020/12/13 07:16:05;;;;;;;;;29.00;25.60;;;;;9.17;48.96;98262.19;6185958;28;96966;-60
2020/12/13 07:19:10;;;;;;;;;30.40;26.00;;;;;8.95;49.20;98245.72;6184493;28;98456;-60
2020/12/13 07:22:14;;;;;;;;;27.20;25.60;;;;;8.99;49.08;98270.31;6187358;28;96486;-60
2020/12/13 07:25:16;;;;;;;;;30.00;27.00;;;;;8.87;49.13;98270.25;6187416;28;97590;-60
2020/12/13 07:28:18;;;;;;;;;29.00;24.00;;;;;8.84;49.34;98259.94;6185804;28;96613;-60
2020/12/13 07:31:21;;;;;;;;;33.40;28.60;;;;;8.70;49.14;98234.25;6186695;28;96749;-60
2020/12/13 07:34:23;;;;;;;;;27.40;23.00;;;;;8.99;49.41;98278.38;6186384;28;97039;-60
2020/12/13 07:37:26;;;;;;;;;31.40;28.00;;;;;8.99;49.25;98278.38;6183878;28;96958;-60
2020/12/13 07:40:28;;;;;;;;;27.80;25.40;;;;;8.93;49.43;98260.44;6178937;28;97360;-60
2020/12/13 07:43:30;;;;;;;;;32.33;26.33;;;;;8.99;49.39;98275.69;6166345;28;97496;-60
2020/12/13 07:46:33;;;;;;;;;32.00;28.50;;;;;9.05;49.47;98282.81;6160662;28;97513;-60
2020/12/13 07:49:35;;;;;;;;;33.00;29.00;;;;;8.67;49.42;98262.41;6160987;28;97040;-60
2020/12/13 07:52:44;;;;;;;;;34.40;30.00;;;;;8.95;49.66;98296.81;6182278;28;96783;-60
2020/12/13 07:55:45;;;;;;;;;29.00;24.60;;;;;8.96;49.58;98298.44;6186074;28;98556;-60
2020/12/13 07:58:47;;;;;;;;;30.50;28.00;;;;;9.07;49.39;98295.00;6185900;28;98456;-60
2020/12/13 08:01:58;;;;;;;;;28.60;26.00;;;;;9.17;49.69;98301.72;6186460;28;96728;-60
2020/12/13 08:05:01;;;;;;;;;31.00;27.00;;;;;9.23;49.08;98298.94;6186275;28;96718;-60
2020/12/13 08:08:02;;;;;;;;;34.20;29.00;;;;;9.28;49.13;98296.41;6184876;28;96763;-60
2020/12/13 08:11:13;;;;;;;;;33.80;28.60;;;;;9.34;49.16;98300.03;6186476;28;97462;-60
2020/12/13 08:14:14;;;;;;;;;30.40;27.60;;;;;9.33;48.75;98304.59;6179154;28;97100;-60
2020/12/13 08:17:18;;;;;;;;;33.40;28.00;;;;;9.18;48.77;98297.97;6161659;28;97064;-60
2020/12/13 08:20:21;;;;;;;;;29.60;28.60;;;;;9.18;48.91;98300.66;6183603;28;98950;-59
2020/12/13 08:23:26;;;;;;;;;32.60;30.00;;;;;9.07;48.95;98296.88;6185385;28;97779;-60
2020/12/13 08:26:30;;;;;;;;;36.00;30.00;;;;;9.03;49.04;98293.81;6185245;28;97137;-60
2020/12/13 08:29:33;;;;;;;;;33.50;30.00;;;;;9.17;49.37;98301.72;6185448;28;96952;-60
2020/12/13 08:32:36;;;;;;;;;33.80;30.00;;;;;9.12;49.22;98313.16;6185411;28;97585;-60
2020/12/13 08:35:37;;;;;;;;;33.60;28.60;;;;;9.13;49.42;98302.19;6186095;28;97464;-60
2020/12/13 08:38:39;;;;;;;;;34.00;29.00;;;;;9.27;49.26;98307.38;6184699;28;96962;-60
2020/12/13 08:41:45;;;;;;;;;31.60;27.40;;;;;9.26;48.93;98297.66;6175127;28;97435;-60
2020/12/13 08:44:47;;;;;;;;;31.50;27.75;;;;;9.44;48.65;98322.63;6163289;28;98061;-60
2020/12/13 08:47:49;;;;;;;;;30.00;26.50;;;;;9.48;48.58;98334.59;6184677;28;97259;-60
2020/12/13 08:51:11;;;;;;;;;31.40;25.40;;;;;9.49;48.40;98330.84;6184849;28;98494;-60
2020/12/13 08:54:13;;;;;;;;;32.00;29.00;;;;;9.43;48.22;98329.06;6185056;28;97062;-60
2020/12/13 08:57:36;;;;;;;;;28.50;26.00;;;;;9.45;48.17;98332.34;6185598;28;98570;-60
2020/12/13 09:00:38;;;;;;;;;33.00;30.00;;;;;9.44;48.08;98340.66;6185092;28;97241;-60
2020/12/13 09:03:39;;;;;;;;;30.60;28.00;;;;;9.23;48.30;98314.25;6184726;28;97529;-59
2020/12/13 09:06:41;;;;;;;;;32.00;27.40;;;;;9.41;48.48;98338.44;6183976;28;98542;-60
2020/12/13 09:09:42;;;;;;;;;31.00;27.40;;;;;9.41;48.37;98347.31;6183710;28;98433;-60
2020/12/13 09:12:44;;;;;;;;;27.00;25.00;;;;;9.36;48.40;98344.50;6183591;28;97563;-60
2020/12/13 09:15:46;;;;;;;;;23.00;22.00;;;;;9.19;48.76;98334.59;6183693;28;97055;-60
2020/12/13 09:18:48;;;;;;;;;31.60;29.00;;;;;9.19;48.96;98340.75;6181644;28;97354;-60
2020/12/13 09:21:58;;;;;;;;;27.20;22.00;;;;;9.07;49.21;98338.03;6175773;28;97291;-60
2020/12/13 09:25:01;;;;;;;;;25.20;22.60;;;;;9.13;48.97;98341.69;6173903;28;97008;-60
2020/12/13 09:28:03;;;;;;;;;30.00;26.33;;;;;9.05;49.29;98350.03;6176423;28;96678;-59
2020/12/13 09:31:08;;;;;;;;;28.75;26.25;;;;;9.03;49.45;98344.91;6183799;28;98600;-60
2020/12/13 09:34:10;;;;;;;;;27.20;23.00;;;;;9.07;49.26;98345.28;6183071;28;96890;-60
2020/12/13 09:37:17;;;;;;;;;30.60;26.60;;;;;9.17;49.39;98337.50;6178456;28;97444;-60
2020/12/13 09:40:20;;;;;;;;;34.25;27.50;;;;;9.19;49.49;98331.91;6180728;28;96753;-59
2020/12/13 09:43:21;;;;;;;;;29.00;25.50;;;;;9.23;49.49;98338.47;6182603;28;97461;-60
2020/12/13 09:46:23;;;;;;;;;31.80;27.20;;;;;9.08;49.58;98330.78;6177896;28;97682;-60
2020/12/13 09:49:25;;;;;;;;;29.60;27.60;;;;;9.14;49.80;98330.69;6181330;28;97521;-60
2020/12/13 09:52:27;;;;;;;;;26.80;25.20;;;;;9.25;49.40;98339.03;6180422;28;97336;-60
2020/12/13 09:55:28;;;;;;;;;32.75;26.00;;;;;9.31;49.33;98344.34;6183876;28;97088;-60
2020/12/13 09:58:30;;;;;;;;;32.40;27.00;;;;;9.32;49.30;98334.41;6179996;28;96993;-60
2020/12/13 10:01:32;;;;;;;;;31.20;27.40;;;;;9.36;48.84;98344.50;6183033;28;98029;-60
2020/12/13 10:04:34;;;;;;;;;31.20;24.60;;;;;9.09;48.98;98313.59;6183342;28;97614;-60
2020/12/13 10:10:49;;;;;;;;;31.20;26.60;;;;;9.31;49.31;98340.84;6182275;28;98241;-60
2020/12/13 10:13:50;;;;;;;;;30.80;27.00;;;;;9.39;48.82;98345.88;6182185;28;97434;-60
2020/12/13 10:16:53;;;;;;;;;35.25;31.00;;;;;9.36;48.44;98341.81;6182894;28;97469;-60
2020/12/13 10:19:55;;;;;;;;;35.00;30.00;;;;;9.33;48.61;98344.94;6182174;28;97223;-60
2020/12/13 10:22:57;;;;;;;;;40.75;33.75;;;;;9.32;48.87;98351.38;6182472;28;97434;-60
2020/12/13 10:25:58;;;;;;;;;38.25;31.50;;;;;9.39;48.74;98345.88;6183506;28;96663;-61
2020/12/13 10:29:00;;;;;;;;;37.00;31.20;;;;;9.34;48.80;98343.06;6175658;28;97661;-60
2020/12/13 10:32:01;;;;;;;;;39.60;32.00;;;;;9.36;48.60;98347.19;6182524;28;96800;-60
2020/12/13 10:35:03;;;;;;;;;36.33;30.00;;;;;9.38;48.62;98344.28;6175678;28;98634;-60
2020/12/13 10:38:05;;;;;;;;;41.00;33.00;;;;;9.24;48.71;98321.25;6183559;28;96471;-60
2020/12/13 10:41:08;;;;;;;;;42.40;32.00;;;;;9.36;48.14;98343.66;6184777;28;98971;-60
2020/12/13 10:44:12;;;;;;;;;40.60;32.00;;;;;9.35;48.58;98350.91;6185101;28;97296;-60
2020/12/13 10:47:14;;;;;;;;;37.80;30.60;;;;;9.38;48.74;98346.97;6184283;28;97442;-60
2020/12/13 10:50:16;;;;;;;;;37.00;32.00;;;;;9.44;48.64;98348.72;6189834;28;97208;-60
2020/12/13 10:53:17;;;;;;;;;37.00;31.00;;;;;9.50;48.59;98354.03;6190005;28;96515;-60
2020/12/13 10:56:19;;;;;;;;;39.20;32.00;;;;;9.37;48.37;98323.78;6170723;28;96781;-59
2020/12/13 10:59:20;;;;;;;;;41.40;33.00;;;;;9.55;48.21;98343.41;6184421;28;96723;-60
2020/12/13 11:02:22;;;;;;;;;38.00;33.00;;;;;9.38;48.43;98320.06;6186228;28;96981;-61
2020/12/13 11:05:23;;;;;;;;;45.60;33.00;;;;;9.58;48.39;98355.56;6187869;28;97145;-60
2020/12/13 11:08:25;;;;;;;;;42.20;32.60;;;;;9.52;48.36;98332.28;6203089;28;97515;-60
2020/12/13 11:11:26;;;;;;;;;44.00;35.20;;;;;9.60;48.33;98353.47;6188219;28;98648;-60
2020/12/13 11:14:28;;;;;;;;;44.67;32.00;;;;;9.53;48.40;98348.19;6171933;28;97300;-60
2020/12/13 11:17:29;;;;;;;;;40.25;33.00;;;;;9.52;48.44;98351.94;6198900;28;96740;-60
2020/12/13 11:20:31;;;;;;;;;40.75;32.75;;;;;9.55;48.62;98350.66;6185202;28;97019;-60
2020/12/13 11:23:32;;;;;;;;;36.80;32.60;;;;;9.54;48.40;98357.91;6187985;28;96947;-60
2020/12/13 11:26:33;;;;;;;;;39.75;31.75;;;;;9.51;48.71;98355.66;6188316;28;97194;-60
2020/12/13 11:29:35;;;;;;;;;37.60;32.00;;;;;9.41;48.51;98341.13;6187613;28;97697;-60
2020/12/13 11:32:38;;;;;;;;;37.40;32.00;;;;;9.46;48.64;98352.84;6183856;28;97647;-61
2020/12/13 11:35:40;;;;;;;;;39.60;31.00;;;;;9.40;48.63;98344.84;6187809;28;96685;-60
2020/12/13 11:38:41;;;;;;;;;41.50;33.00;;;;;9.46;48.44;98347.47;6187498;28;97109;-60
2020/12/13 11:41:43;;;;;;;;;43.00;34.60;;;;;9.53;48.76;98355.41;6186795;28;97184;-60
2020/12/13 11:44:45;;;;;;;;;34.75;30.00;;;;;9.53;49.05;98364.31;6171281;28;97383;-60
2020/12/13 11:47:47;;;;;;;;;39.40;33.00;;;;;9.58;48.93;98369.84;6187749;28;98502;-60
2020/12/13 11:50:50;;;;;;;;;45.00;35.00;;;;;9.64;49.15;98364.59;6186309;28;97062;-60
2020/12/13 11:53:52;;;;;;;;;40.00;32.00;;;;;9.66;48.71;98367.91;6181939;28;98246;-60
2020/12/13 11:56:56;;;;;;;;;39.00;34.00;;;;;9.71;48.77;98371.53;6186495;28;96526;-60
2020/12/13 11:59:57;;;;;;;;;33.50;28.50;;;;;9.70;48.63;98369.06;6187448;28;97443;-60
2020/12/13 12:02:58;;;;;;;;;36.00;31.00;;;;;9.73;48.63;98363.22;6183445;28;97425;-60
2020/12/13 12:06:00;;;;;;;;;31.40;27.40;;;;;9.65;48.43;98366.25;6185635;28;97281;-59
2020/12/13 12:09:02;;;;;;;;;32.50;28.50;;;;;9.74;48.44;98381.03;6190015;28;96720;-60
2020/12/13 12:12:04;;;;;;;;;35.00;30.00;;;;;9.75;48.61;98374.59;6188906;28;96865;-60
2020/12/13 12:15:05;;;;;;;;;33.00;30.00;;;;;9.72;48.61;98378.56;6185950;28;96435;-60
2020/12/13 12:18:06;;;;;;;;;36.75;30.00;;;;;9.75;48.53;98378.13;6182226;28;96772;-60
2020/12/13 12:21:16;;;;;;;;;30.40;28.00;;;;;9.77;48.45;98378.72;6185363;28;97660;-60
2020/12/13 12:24:21;;;;;;;;;34.80;29.60;;;;;9.69;48.52;98370.94;6184007;28;98521;-60
2020/12/13 12:27:22;;;;;;;;;27.75;23.00;;;;;9.84;48.11;98392.06;6180679;28;97393;-60
2020/12/13 12:30:24;;;;;;;;;31.80;29.80;;;;;9.81;48.13;98387.97;6169403;28;96765;-60
2020/12/13 12:33:25;;;;;;;;;33.00;30.00;;;;;9.82;48.25;98389.59;6183228;28;97440;-60
2020/12/13 12:36:28;;;;;;;;;34.20;27.20;;;;;9.83;48.44;98388.53;6169796;28;97333;-60
2020/12/13 12:39:30;;;;;;;;;31.80;28.00;;;;;9.82;48.18;98394.97;6201676;28;97416;-60
2020/12/13 12:42:32;;;;;;;;;33.00;26.00;;;;;9.79;47.87;98395.44;6185616;28;97640;-60
2020/12/13 12:45:34;;;;;;;;;34.50;30.00;;;;;9.60;48.00;98364.25;6186137;28;98433;-60
2020/12/13 12:48:36;;;;;;;;;31.80;28.00;;;;;9.68;47.97;98381.94;6186361;28;97512;-60
2020/12/13 12:51:37;;;;;;;;;36.60;30.00;;;;;9.75;48.24;98396.94;6201181;28;96632;-60
2020/12/13 12:54:39;;;;;;;;;35.00;29.00;;;;;9.73;48.43;98400.91;6185968;28;97246;-60
2020/12/13 12:57:40;;;;;;;;;36.40;31.80;;;;;9.72;48.34;98399.28;6186304;28;98580;-60
2020/12/13 13:00:48;;;;;;;;;33.80;28.40;;;;;9.72;48.35;98412.75;6184252;28;96857;-60
2020/12/13 13:03:57;;;;;;;;;35.60;30.00;;;;;9.49;48.49;98383.84;6169486;28;96875;-60
2020/12/13 13:07:17;;;;;;;;;38.40;33.00;;;;;9.51;48.50;98381.75;6185392;28;97148;-60
2020/12/13 13:10:22;;;;;;;;;40.60;34.40;;;;;9.72;48.35;98418.97;6185563;28;96846;-60
2020/12/13 13:13:26;;;;;;;;;38.00;31.00;;;;;9.68;48.70;98419.59;6176400;28;97976;-60
2020/12/13 13:16:27;;;;;;;;;37.40;31.40;;;;;9.66;48.91;98424.41;6181904;28;98467;-60
2020/12/13 13:19:29;;;;;;;;;32.40;29.60;;;;;9.62;48.84;98409.78;6184660;28;96671;-60
2020/12/13 13:22:30;;;;;;;;;38.00;32.00;;;;;9.68;48.65;98425.00;6185876;28;97573;-60
2020/12/13 13:25:32;;;;;;;;;31.20;27.20;;;;;9.69;48.41;98432.03;6185344;28;97931;-60
2020/12/13 13:28:33;;;;;;;;;36.75;30.50;;;;;9.70;48.44;98429.13;6185487;28;97115;-60
2020/12/13 13:31:35;;;;;;;;;33.40;27.40;;;;;9.45;48.43;98398.78;6185221;28;96870;-60
2020/12/13 13:34:36;;;;;;;;;31.50;28.50;;;;;9.66;48.49;98427.09;6182950;28;96833;-60
2020/12/13 13:37:38;;;;;;;;;33.60;29.60;;;;;9.71;48.51;98432.63;6184756;28;97548;-60
2020/12/13 13:40:39;;;;;;;;;31.20;28.00;;;;;9.68;48.30;98435.75;6185571;28;98428;-60
2020/12/13 13:43:44;;;;;;;;;35.00;29.00;;;;;9.67;48.15;98450.28;6184781;28;97380;-60
2020/12/13 13:50:01;;;;;;;;;32.80;27.60;;;;;9.55;48.30;98450.22;6185215;28;98704;-60
2020/12/13 13:53:02;;;;;;;;;29.00;26.00;;;;;9.51;48.49;98449.03;6175454;28;97368;-60
2020/12/13 13:56:10;;;;;;;;;27.00;24.00;;;;;9.50;48.52;98461.66;6184169;28;97779;-60
2020/12/13 13:59:13;;;;;;;;;27.20;22.80;;;;;9.34;48.22;98437.22;6174631;28;97493;-60
2020/12/13 14:02:15;;;;;;;;;27.40;22.60;;;;;9.37;48.50;98453.75;6179436;28;96492;-59
2020/12/13 14:05:17;;;;;;;;;25.80;23.80;;;;;9.21;48.56;98426.59;6184903;28;96611;-60
2020/12/13 14:11:23;;;;;;;;;31.50;28.75;;;;;9.40;48.58;98460.53;6184540;28;97804;-60
2020/12/13 14:14:25;;;;;;;;;31.50;28.50;;;;;9.37;48.81;98461.81;6184057;28;97490;-60
2020/12/13 14:17:27;;;;;;;;;32.00;27.00;;;;;9.38;48.94;98465.34;6184287;28;97779;-60
2020/12/13 14:20:28;;;;;;;;;30.50;27.25;;;;;9.38;48.53;98457.25;6184624;28;96652;-60
2020/12/13 14:23:30;;;;;;;;;32.50;30.00;;;;;9.24;48.68;98443.13;6184790;28;98674;-60
2020/12/13 14:26:32;;;;;;;;;29.75;26.00;;;;;9.35;48.73;98465.75;6179814;28;96721;-60